createdAt,value
2022-10-29T00:07:29.693Z,11.45
2022-10-29T00:17:31.291Z,11.46
2022-10-29T00:27:33.114Z,11.52
2022-10-29T00:37:36.135Z,11.52
2022-10-29T00:47:38.254Z,11.60
2022-10-29T00:57:43.633Z,11.51
2022-10-29T01:07:47.727Z,11.56
2022-10-29T01:18:27.774Z,11.52
2022-10-29T01:29:21.928Z,11.46
2022-10-29T01:39:33.869Z,11.46
2022-10-29T01:49:42.954Z,11.44
2022-10-29T01:59:55.638Z,11.54
2022-10-29T02:10:11.855Z,11.46
2022-10-29T02:20:16.162Z,11.52
2022-10-29T02:30:18.587Z,11.45
2022-10-29T02:40:21.120Z,11.38
2022-10-29T02:50:22.705Z,11.27
2022-10-29T03:00:24.324Z,11.22
2022-10-29T03:10:25.924Z,11.33
2022-10-29T03:20:27.585Z,11.26
2022-10-29T03:30:32.292Z,11.24
2022-10-29T03:40:33.862Z,11.08
2022-10-29T03:50:39.649Z,11.16
2022-10-29T04:00:42.489Z,11.19
2022-10-29T04:10:45.821Z,11.10
2022-10-29T04:23:01.925Z,11.03
2022-10-29T04:31:12.299Z,11.04
2022-10-29T04:41:14.938Z,11.09
2022-10-29T04:51:22.063Z,11.06
2022-10-29T05:01:25.297Z,11.15
2022-10-29T05:11:27.100Z,11.25
2022-10-29T05:21:32.592Z,11.13
2022-10-29T05:31:34.237Z,11.10
2022-10-29T05:41:35.950Z,11.08
2022-10-29T05:51:37.774Z,11.08
2022-10-29T06:01:40.540Z,11.10
2022-10-29T06:11:47.311Z,11.17
2022-10-29T06:21:52.540Z,11.15
2022-10-29T06:31:56.776Z,11.17
2022-10-29T06:42:00.440Z,11.13
2022-10-29T06:52:02.018Z,11.00
2022-10-29T07:02:03.730Z,11.15
2022-10-29T07:12:06.019Z,11.13
2022-10-29T07:22:10.785Z,11.07
2022-10-29T07:32:12.399Z,11.11
2022-10-29T07:42:14.037Z,11.08
2022-10-29T07:52:16.762Z,11.28
2022-10-29T08:02:19.467Z,11.15
2022-10-29T08:12:21.568Z,11.37
2022-10-29T08:22:24.430Z,11.47
2022-10-29T08:32:35.758Z,11.30
2022-10-29T08:42:58.562Z,11.40
2022-10-29T08:53:22.325Z,11.44
2022-10-29T09:03:30.986Z,11.38
2022-10-29T09:13:50.887Z,11.56
2022-10-29T09:24:05.455Z,11.41
2022-10-29T09:34:18.044Z,11.52
2022-10-29T09:44:38.059Z,12.27
2022-10-29T09:54:39.858Z,12.21
2022-10-29T10:04:49.220Z,11.73
2022-10-29T10:15:06.746Z,11.57
2022-10-29T10:25:32.796Z,12.05
2022-10-29T10:35:35.817Z,11.93
2022-10-29T10:45:40.266Z,11.93
2022-10-29T10:55:49.074Z,11.78
2022-10-29T11:06:08.488Z,12.29
2022-10-29T11:16:31.244Z,12.76
2022-10-29T11:26:36.680Z,12.76
2022-10-29T11:36:47.159Z,12.71
2022-10-29T11:47:28.906Z,13.07
2022-10-29T11:57:55.724Z,12.56
2022-10-29T12:08:03.330Z,12.72
2022-10-29T12:18:23.328Z,13.05
2022-10-29T12:28:34.653Z,13.49
2022-10-29T12:38:45.582Z,13.69
2022-10-29T12:49:05.638Z,12.97
2022-10-29T12:59:27.369Z,12.68
2022-10-29T13:09:36.826Z,12.40
2022-10-29T13:20:09.073Z,12.50
2022-10-29T13:30:27.175Z,12.66
2022-10-29T13:40:32.622Z,12.37
2022-10-29T13:50:35.322Z,12.48
2022-10-29T14:00:38.706Z,12.19
2022-10-29T14:10:40.324Z,12.48
2022-10-29T14:20:57.265Z,12.10
2022-10-29T14:31:21.918Z,12.21
2022-10-29T14:41:25.730Z,11.99
2022-10-29T14:51:28.439Z,12.00
2022-10-29T15:01:31.429Z,11.91
2022-10-29T15:11:47.777Z,11.90
2022-10-29T15:21:50.282Z,11.75
2022-10-29T15:31:55.850Z,11.67
2022-10-29T15:42:01.188Z,11.58
2022-10-29T15:52:09.071Z,11.58
2022-10-29T16:02:17.509Z,11.53
2022-10-29T16:12:21.811Z,11.52
2022-10-29T16:22:30.954Z,11.57
2022-10-29T16:32:33.002Z,11.50
2022-10-29T16:42:36.305Z,11.55
2022-10-29T16:52:39.894Z,11.49
2022-10-29T17:02:44.814Z,11.46
2022-10-29T17:12:49.572Z,11.49
2022-10-29T17:22:53.731Z,11.40
2022-10-29T17:32:55.763Z,11.43
2022-10-29T17:42:59.586Z,11.49
2022-10-29T17:53:02.146Z,11.43
2022-10-29T18:03:05.148Z,11.45
2022-10-29T18:13:07.530Z,11.44
2022-10-29T18:23:10.293Z,11.49
2022-10-29T18:33:13.323Z,11.47
2022-10-29T18:43:14.982Z,11.45
2022-10-29T18:53:17.365Z,11.58
2022-10-29T19:03:20.368Z,11.56
2022-10-29T19:13:24.057Z,11.61
2022-10-29T19:23:26.271Z,11.63
2022-10-29T19:33:30.810Z,11.62
2022-10-29T19:43:32.919Z,11.67
2022-10-29T19:53:37.412Z,11.73
2022-10-29T20:03:39.032Z,11.73
2022-10-29T20:13:41.095Z,11.84
2022-10-29T20:23:43.577Z,11.86
2022-10-29T20:33:56.796Z,11.65
2022-10-29T20:43:59.820Z,11.67
2022-10-29T20:54:01.578Z,11.71
2022-10-29T21:04:04.396Z,11.82
2022-10-29T21:14:08.775Z,11.75
2022-10-29T21:24:17.912Z,11.72
2022-10-29T21:34:19.557Z,11.77
2022-10-29T21:44:21.789Z,11.80
2022-10-29T21:54:25.791Z,11.80
2022-10-29T22:04:30.089Z,12.06
2022-10-29T22:14:31.694Z,11.85
2022-10-29T22:24:34.562Z,11.89
2022-10-29T22:34:37.582Z,11.93
2022-10-29T22:44:39.163Z,11.97
2022-10-29T22:54:41.828Z,11.97
2022-10-29T23:04:43.385Z,11.79
2022-10-29T23:14:45.009Z,11.90
2022-10-29T23:24:52.468Z,11.93
2022-10-29T23:34:54.097Z,11.99
2022-10-29T23:44:56.293Z,11.98
2022-10-29T23:54:59.486Z,11.87
